createdAt,value
2018-12-24T11:20:08.069Z,3.13
2018-12-24T11:22:57.242Z,2.50
2018-12-24T11:25:46.266Z,3.10
2018-12-24T11:28:35.239Z,3.50
2018-12-24T11:31:24.271Z,3.57
2018-12-24T11:34:13.295Z,2.80
2018-12-24T11:37:02.256Z,3.40
2018-12-24T11:39:51.604Z,4.93
2018-12-24T11:42:42.249Z,3.27
2018-12-24T11:45:34.066Z,4.10
2018-12-24T11:48:41.358Z,4.33
2018-12-24T11:51:30.294Z,3.13
2018-12-24T11:54:38.674Z,4.27
2018-12-24T11:57:27.715Z,3.80
2018-12-24T12:00:18.324Z,3.80
2018-12-24T12:03:07.358Z,4.70
2018-12-24T12:05:56.299Z,3.83
2018-12-24T12:08:45.507Z,4.20
2018-12-24T12:11:34.595Z,3.63
2018-12-24T12:14:23.627Z,3.90
2018-12-24T12:17:12.654Z,3.10
2018-12-24T12:19:55.107Z,3.37
2018-12-24T12:22:44.060Z,4.03
2018-12-24T12:25:33.093Z,3.93
2018-12-24T12:28:22.210Z,3.63
2018-12-24T12:31:32.275Z,5.00
2018-12-24T12:34:21.472Z,3.40
2018-12-24T12:37:10.484Z,3.50
2018-12-24T12:39:40.199Z,3.67
2018-12-24T12:42:48.584Z,3.90
2018-12-24T12:45:37.993Z,3.57
2018-12-24T12:48:47.926Z,4.03
2018-12-24T12:51:39.217Z,6.93
2018-12-24T12:54:28.279Z,4.03
2018-12-24T12:57:17.570Z,4.57
2018-12-24T13:00:06.340Z,4.60
2018-12-24T13:02:55.412Z,5.20
2018-12-24T13:06:03.865Z,5.83
2018-12-24T13:08:52.803Z,5.30
2018-12-24T13:11:41.864Z,5.40
2018-12-24T13:14:30.936Z,3.20
2018-12-24T13:17:19.922Z,3.30
2018-12-24T13:20:03.057Z,3.97
2018-12-24T13:22:52.063Z,5.57
2018-12-24T13:25:41.107Z,4.03
2018-12-24T13:28:30.237Z,3.83
2018-12-24T13:31:19.319Z,3.80
2018-12-24T13:34:08.473Z,3.80
2018-12-24T13:36:57.591Z,3.63
2018-12-24T13:39:46.600Z,3.63
2018-12-24T13:42:35.555Z,3.87
2018-12-24T13:48:45.774Z,3.70
2018-12-24T13:52:18.667Z,3.50
2018-12-24T13:55:07.535Z,3.30
2018-12-24T13:57:56.536Z,4.07
2018-12-24T14:00:45.451Z,3.27
2018-12-24T14:03:34.307Z,4.50
2018-12-24T14:06:42.583Z,4.23
2018-12-24T14:09:12.115Z,5.20
2018-12-24T14:12:00.953Z,6.50
2018-12-24T14:14:49.905Z,3.53
2018-12-24T14:17:38.746Z,4.30
2018-12-24T14:20:47.030Z,4.77
2018-12-24T14:23:35.959Z,4.67
2018-12-24T14:26:24.884Z,2.97
2018-12-24T14:29:13.750Z,3.60
2018-12-24T14:32:04.303Z,3.53
2018-12-24T14:34:53.306Z,3.77
2018-12-24T14:37:42.163Z,4.57
2018-12-24T14:40:31.103Z,4.23
2018-12-24T14:43:19.968Z,3.77
2018-12-24T14:46:08.915Z,4.27
2018-12-24T14:48:57.755Z,4.23
2018-12-24T14:51:46.627Z,5.33
2018-12-24T14:54:55.035Z,4.67
2018-12-24T14:57:44.015Z,5.00
2018-12-24T15:00:34.521Z,4.27
2018-12-24T15:03:23.350Z,4.53
2018-12-24T15:09:11.786Z,4.03
2018-12-24T15:12:00.685Z,3.83
2018-12-24T15:14:49.512Z,4.53
2018-12-24T15:17:38.375Z,3.77
2018-12-24T15:20:27.216Z,4.33
2018-12-24T15:23:16.085Z,5.23
2018-12-24T15:29:12.794Z,6.07
2018-12-24T15:32:01.649Z,6.40
2018-12-24T15:34:50.689Z,5.60
2018-12-24T15:37:39.567Z,6.50
2018-12-24T15:40:28.414Z,5.63
2018-12-24T15:43:17.370Z,6.67
2018-12-24T15:46:06.227Z,5.77
2018-12-24T15:49:14.520Z,6.50
2018-12-24T15:52:03.514Z,6.03
2018-12-24T15:54:52.687Z,8.50
2018-12-24T15:57:41.915Z,7.57
2018-12-24T16:03:36.983Z,6.50
2018-12-24T16:06:44.862Z,5.53
2018-12-24T16:09:53.240Z,5.10
2018-12-24T16:12:42.206Z,6.20
2018-12-24T16:15:31.137Z,6.33
2018-12-24T16:18:19.966Z,6.50
2018-12-24T16:21:08.886Z,6.00
2018-12-24T16:23:57.958Z,6.43
2018-12-24T16:26:47.894Z,7.07
2018-12-24T16:29:37.584Z,4.27
2018-12-24T16:32:28.407Z,5.70
2018-12-24T16:35:36.730Z,5.37
2018-12-24T16:38:45.147Z,5.93
2018-12-24T16:41:34.239Z,7.70
2018-12-24T16:44:23.208Z,4.97
2018-12-24T16:47:12.238Z,6.50
2018-12-24T16:52:50.100Z,6.67
2018-12-24T16:55:41.682Z,6.50
2018-12-24T16:58:30.638Z,7.33
2018-12-24T17:01:21.110Z,7.10
2018-12-24T17:04:10.029Z,5.70
2018-12-24T17:09:59.342Z,8.40
2018-12-24T17:12:48.194Z,7.80
2018-12-24T17:15:38.709Z,7.80
2018-12-24T17:18:27.667Z,8.07
2018-12-24T17:21:16.650Z,7.30
2018-12-24T17:24:05.555Z,8.27
2018-12-24T17:26:54.489Z,9.20
2018-12-24T17:29:43.426Z,11.00
2018-12-24T17:32:32.571Z,12.27
2018-12-24T17:35:21.436Z,10.70
2018-12-24T17:38:10.362Z,8.60
2018-12-24T17:40:59.275Z,8.53
2018-12-24T17:43:48.318Z,7.97
2018-12-24T17:46:37.167Z,7.10
2018-12-24T17:49:26.123Z,10.90
2018-12-24T17:52:16.671Z,11.90
2018-12-24T17:55:05.591Z,10.40
2018-12-24T17:57:54.475Z,9.67
2018-12-24T18:04:10.963Z,9.50
2018-12-24T18:06:59.876Z,9.67
2018-12-24T18:09:48.815Z,9.20
2018-12-24T18:12:37.654Z,9.60
2018-12-24T18:15:26.520Z,10.60
2018-12-24T18:18:15.359Z,7.70
2018-12-24T18:21:23.683Z,9.73
2018-12-24T18:24:12.630Z,7.57
2018-12-24T18:26:53.224Z,7.07
2018-12-24T18:29:42.158Z,7.63
2018-12-24T18:32:31.051Z,7.77
2018-12-24T18:35:19.924Z,7.70
2018-12-24T18:38:10.451Z,8.60
2018-12-24T18:40:59.407Z,9.17
2018-12-24T18:43:48.238Z,7.47
2018-12-24T18:46:37.159Z,9.20
2018-12-24T18:49:19.844Z,8.60
2018-12-24T18:52:08.782Z,9.50
2018-12-24T18:54:57.634Z,9.60
2018-12-24T18:57:48.131Z,8.87
2018-12-24T19:00:37.010Z,8.87
2018-12-24T19:03:25.870Z,7.83
2018-12-24T19:06:34.187Z,7.57
2018-12-24T19:09:24.653Z,12.00
2018-12-24T19:12:15.147Z,9.37
2018-12-24T19:15:04.727Z,9.50
2018-12-24T19:17:53.678Z,10.07
2018-12-24T19:20:23.173Z,9.60
2018-12-24T19:22:52.945Z,10.90
2018-12-24T19:25:41.780Z,9.47
2018-12-24T19:31:50.785Z,9.97
2018-12-24T19:34:59.059Z,10.17
2018-12-24T19:37:48.029Z,8.70
2018-12-24T19:40:36.870Z,10.10
2018-12-24T19:43:45.157Z,9.87
2018-12-24T19:46:34.197Z,9.58
2018-12-24T19:49:23.071Z,9.10
2018-12-24T19:52:12.012Z,9.37
2018-12-24T19:55:01.001Z,10.90
2018-12-24T20:06:34.060Z,8.70
2018-12-24T20:09:23.338Z,8.53
2018-12-24T20:12:12.203Z,9.20
2018-12-24T20:15:01.068Z,9.60
2018-12-24T20:17:58.037Z,10.60
2018-12-24T20:21:00.048Z,7.70
2018-12-24T20:23:49.080Z,7.70
2018-12-24T20:26:31.456Z,7.23
2018-12-24T20:29:20.483Z,8.43
2018-12-24T20:32:09.330Z,8.37
2018-12-24T20:34:58.335Z,8.37
2018-12-24T20:37:47.199Z,9.50
2018-12-24T20:40:36.167Z,6.87
2018-12-24T23:06:25.290Z,7.03
2018-12-24T23:09:14.246Z,6.60
2018-12-24T23:12:03.297Z,5.97
2018-12-24T23:14:52.271Z,7.33
2018-12-24T23:20:48.579Z,6.37
2018-12-24T23:23:37.530Z,6.50
2018-12-24T23:26:26.456Z,6.57
2018-12-24T23:29:09.172Z,6.63
2018-12-24T23:31:58.059Z,6.40
2018-12-24T23:34:46.912Z,6.13
2018-12-24T23:37:55.228Z,6.80
2018-12-24T23:40:44.135Z,7.03
2018-12-24T23:43:32.997Z,7.10
2018-12-24T23:46:21.851Z,6.97
2018-12-24T23:49:10.730Z,7.50
2018-12-24T23:51:59.606Z,8.00
2018-12-24T23:55:07.884Z,5.23
2018-12-24T23:57:56.743Z,6.53
